Time;durP1;ratioP1;P1;durP2;ratioP2;P2;SDS_P1;SDS_P2;PMS_P1;PMS_P2;Temp;Humidity;BMP_temperature;BMP_pressure;BME280_temperature;BME280_humidity;BME280_pressure;Samples;Min_cycle;Max_cycle;Signal;HPM_P1;HPM_P2
2022/04/02 00:01:08;;;;;;;5.73;2.47;;;;;;;2.03;66.63;101388.75;5229815;28;20094;-66
2022/04/02 00:03:40;;;;;;;4.50;2.80;;;;;;;2.08;66.34;101391.28;5233695;28;20590;-66
2022/04/02 00:06:12;;;;;;;6.40;2.90;;;;;;;2.08;66.81;101393.88;5232943;28;20471;-66
2022/04/02 00:08:43;;;;;;;8.13;3.23;;;;;;;1.99;66.29;101395.69;5235008;28;20112;-66
2022/04/02 00:11:14;;;;;;;7.57;2.50;;;;;;;2.00;66.32;101392.25;5231020;28;20040;-66
2022/04/02 00:13:45;;;;;;;4.90;2.97;;;;;;;2.08;66.51;101389.53;5229058;28;20045;-66
2022/04/02 00:16:17;;;;;;;4.93;2.30;;;;;;;2.04;66.55;101398.25;5234949;28;20064;-66
2022/04/02 00:18:51;;;;;;;4.97;3.03;;;;;;;2.00;65.82;101394.84;5230117;28;20464;-66
2022/04/02 00:21:22;;;;;;;4.05;2.80;;;;;;;2.03;66.60;101397.38;5228690;28;20531;-66
2022/04/02 00:23:53;;;;;;;8.00;3.07;;;;;;;2.02;67.66;101406.03;5229724;28;20029;-66
2022/04/02 00:26:25;;;;;;;3.63;2.40;;;;;;;2.07;66.04;101403.34;5231218;28;20503;-66
2022/04/02 00:28:56;;;;;;;5.47;2.70;;;;;;;2.05;65.70;101405.09;5230498;28;20656;-66
2022/04/02 00:31:29;;;;;;;9.13;4.17;;;;;;;2.07;65.85;101393.03;5226936;28;20057;-66
2022/04/02 00:34:00;;;;;;;6.20;3.83;;;;;;;2.02;65.93;101394.81;5230347;28;20075;-66
2022/04/02 00:36:37;;;;;;;5.63;3.10;;;;;;;1.88;66.43;101393.31;5230181;28;20397;-66
2022/04/02 00:39:09;;;;;;;6.77;3.10;;;;;;;2.00;65.58;101396.56;5234813;28;20431;-66
2022/04/02 00:41:40;;;;;;;10.43;3.60;;;;;;;2.07;65.97;101394.75;5233485;28;20355;-66
2022/04/02 00:44:14;;;;;;;5.80;3.00;;;;;;;1.99;65.44;101390.53;5228248;28;20069;-66
2022/04/02 00:46:45;;;;;;;4.97;3.10;;;;;;;2.03;64.92;101393.94;5228874;28;20017;-66
2022/04/02 00:49:16;;;;;;;6.03;2.83;;;;;;;1.93;65.17;101396.66;5221301;28;20040;-66
2022/04/02 00:51:49;;;;;;;5.17;2.93;;;;;;;1.93;65.06;101396.66;5230057;28;20017;-66
2022/04/02 00:54:22;;;;;;;5.60;2.83;;;;;;;2.01;65.21;101399.13;5228462;28;20033;-66
2022/04/02 00:56:54;;;;;;;5.90;3.20;;;;;;;1.95;64.96;101395.78;5230463;28;20420;-66
2022/04/02 00:59:25;;;;;;;10.73;2.70;;;;;;;1.92;64.95;101394.94;5228990;28;20084;-66
2022/04/02 01:01:56;;;;;;;10.63;4.23;;;;;;;1.91;64.96;101395.84;5227953;28;20037;-66
2022/04/02 01:04:28;;;;;;;6.40;3.20;;;;;;;1.98;65.66;101398.31;5228736;28;20037;-66
2022/04/02 01:09:36;;;;;;;8.97;3.00;;;;;;;1.97;65.29;101396.63;5254475;22;20140;-66
2022/04/02 01:12:07;;;;;;;6.53;3.60;;;;;;;1.89;65.39;101395.00;5248423;28;20031;-66
2022/04/02 01:14:39;;;;;;;7.43;2.73;;;;;;;1.97;64.88;101394.03;5231084;28;20033;-66
2022/04/02 01:17:10;;;;;;;8.63;3.30;;;;;;;2.02;65.45;101392.22;5248984;28;20056;-66
2022/04/02 01:19:42;;;;;;;6.43;3.00;;;;;;;2.03;65.19;101404.25;5248132;28;20087;-66
2022/04/02 01:22:13;;;;;;;6.23;3.17;;;;;;;1.99;65.71;101398.28;5248190;28;20037;-66
2022/04/02 01:24:45;;;;;;;5.97;2.87;;;;;;;1.92;65.73;101389.78;5248083;28;20108;-66
2022/04/02 01:27:16;;;;;;;8.23;2.50;;;;;;;1.93;64.65;101395.81;5249296;28;20522;-66
2022/04/02 01:29:47;;;;;;;6.90;2.63;;;;;;;1.97;65.44;101397.47;5247948;28;20025;-66
2022/04/02 01:32:21;;;;;;;6.87;3.23;;;;;;;1.88;65.30;101403.63;5248839;28;20029;-66
2022/04/02 01:34:52;;;;;;;5.28;2.15;;;;;;;1.91;65.16;101395.84;5248470;28;20064;-66
2022/04/02 01:37:24;;;;;;;4.07;2.60;;;;;;;1.84;64.80;101395.94;5247496;28;20063;-66
2022/04/02 01:39:55;;;;;;;6.10;3.10;;;;;;;1.83;64.60;101389.94;5249089;28;20024;-66
2022/04/02 01:42:27;;;;;;;5.63;2.40;;;;;;;1.84;65.24;101396.78;5249035;28;20060;-66
2022/04/02 01:44:59;;;;;;;5.93;2.67;;;;;;;1.82;65.38;101390.78;5252665;28;20433;-66
2022/04/02 01:47:30;;;;;;;6.60;2.80;;;;;;;1.86;65.23;101382.13;5234847;28;20029;-66
2022/04/02 01:50:02;;;;;;;6.50;2.60;;;;;;;1.90;64.73;101393.28;5234211;28;20090;-66
2022/04/02 01:52:34;;;;;;;6.87;2.53;;;;;;;1.79;64.94;101390.84;5252486;28;20387;-66
2022/04/02 01:55:06;;;;;;;5.60;2.60;;;;;;;1.82;64.27;101403.69;5251757;28;20040;-66
2022/04/02 01:57:37;;;;;;;9.07;2.70;;;;;;;1.84;64.88;101394.22;5255276;28;20036;-66
2022/04/02 02:00:09;;;;;;;3.43;2.50;;;;;;;1.73;65.46;101401.25;5255555;28;20293;-66
2022/04/02 02:02:41;;;;;;;3.97;2.63;;;;;;;1.76;64.98;101393.47;5253438;28;20551;-66
2022/04/02 02:05:12;;;;;;;5.43;2.47;;;;;;;1.83;65.94;101408.00;5251461;28;20059;-66
2022/04/02 02:07:50;;;;;;;5.23;2.13;;;;;;;1.84;64.10;101401.97;5251707;28;20044;-66
2022/04/02 02:10:21;;;;;;;5.90;2.50;;;;;;;1.78;64.54;101405.47;5251485;28;20041;-66
2022/04/02 02:12:53;;;;;;;4.80;2.70;;;;;;;1.71;64.44;101405.59;5252507;28;20150;-66
2022/04/02 02:15:26;;;;;;;4.13;2.70;;;;;;;1.82;64.79;101411.44;5251549;28;20066;-66
2022/04/02 02:17:57;;;;;;;5.60;2.90;;;;;;;1.73;64.99;101417.59;5251441;28;20036;-66
2022/04/02 02:20:29;;;;;;;5.50;2.57;;;;;;;1.75;64.57;101407.25;5234184;28;20597;-66
2022/04/02 02:23:00;;;;;;;3.43;2.47;;;;;;;1.63;64.90;101414.28;5251384;28;20025;-66
2022/04/02 02:25:33;;;;;;;4.83;2.57;;;;;;;1.68;64.89;101417.66;5251831;28;20104;-66
2022/04/02 02:28:04;;;;;;;6.33;2.70;;;;;;;1.72;65.51;101413.31;5242671;28;20036;-66
2022/04/02 02:30:35;;;;;;;3.67;2.53;;;;;;;1.69;64.99;101419.34;5252492;28;20312;-66
2022/04/02 02:35:56;;;;;;;3.67;2.67;;;;;;;1.63;64.57;101416.88;5252342;28;20080;-66
2022/04/02 02:38:28;;;;;;;4.10;2.43;;;;;;;1.56;64.40;101423.84;5250341;28;20068;-66
2022/04/02 02:40:59;;;;;;;4.80;3.23;;;;;;;1.58;65.62;101423.81;5251999;28;20029;-66
2022/04/02 02:43:30;;;;;;;6.17;2.97;;;;;;;1.64;64.96;101430.66;5255112;28;20053;-66
2022/04/02 02:46:01;;;;;;;5.23;2.90;;;;;;;1.61;64.63;101422.91;5254149;28;20040;-66
2022/04/02 02:48:33;;;;;;;3.50;2.30;;;;;;;1.50;64.47;101423.06;5251658;28;20095;-66
2022/04/02 02:51:04;;;;;;;6.10;2.97;;;;;;;1.45;64.63;101426.56;5251347;28;20373;-66
2022/04/02 02:53:35;;;;;;;6.20;2.73;;;;;;;1.53;64.35;101429.06;5232107;28;20546;-66
2022/04/02 02:56:07;;;;;;;6.27;2.60;;;;;;;1.52;64.42;101429.91;5250203;28;20028;-66
2022/04/02 02:58:38;;;;;;;4.20;2.47;;;;;;;1.48;64.84;101423.09;5257162;28;20035;-66
2022/04/02 03:01:11;;;;;;;6.70;2.60;;;;;;;1.44;64.75;101429.16;5251860;28;20032;-66
2022/04/02 03:03:42;;;;;;;3.73;2.50;;;;;;;1.47;64.87;101429.13;5250351;28;20229;-66
2022/04/02 03:06:13;;;;;;;4.87;2.40;;;;;;;1.42;64.96;101424.00;5251640;28;20041;-66
2022/04/02 03:08:44;;;;;;;8.13;3.40;;;;;;;1.41;64.60;101424.91;5250058;28;20072;-66
2022/04/02 03:11:16;;;;;;;7.17;2.60;;;;;;;1.44;65.79;101432.59;5251565;28;20033;-66
2022/04/02 03:13:48;;;;;;;3.33;1.90;;;;;;;1.44;64.83;101424.00;5250443;28;20029;-66
2022/04/02 03:16:19;;;;;;;5.57;2.83;;;;;;;1.40;65.82;101428.34;5250907;28;20025;-66
2022/04/02 03:18:50;;;;;;;4.23;2.10;;;;;;;1.50;65.12;101423.91;5251236;28;20029;-66
2022/04/02 03:21:21;;;;;;;5.73;2.70;;;;;;;1.43;64.94;101427.47;5250934;28;20189;-66
2022/04/02 03:23:53;;;;;;;6.27;2.83;;;;;;;1.42;64.88;101434.34;5250415;28;20394;-66
2022/04/02 03:26:27;;;;;;;6.53;2.70;;;;;;;1.47;64.89;101438.59;5250677;28;20033;-66
2022/04/02 03:28:58;;;;;;;3.92;2.30;;;;;;;1.43;65.43;101436.03;5250825;28;20510;-66
2022/04/02 03:31:29;;;;;;;5.63;2.30;;;;;;;1.45;65.38;101436.00;5250498;28;20025;-66
2022/04/02 03:34:01;;;;;;;5.67;2.63;;;;;;;1.39;65.36;101436.09;5251354;28;20051;-66
2022/04/02 03:36:32;;;;;;;7.73;2.87;;;;;;;1.36;65.08;101436.13;5251012;28;20487;-66
2022/04/02 03:39:03;;;;;;;4.43;2.20;;;;;;;1.34;65.55;101425.84;5249342;28;20045;-66
2022/04/02 03:41:35;;;;;;;5.50;2.67;;;;;;;1.29;64.77;101430.19;5251060;28;20017;-66
2022/04/02 03:44:06;;;;;;;5.67;2.50;;;;;;;1.29;64.93;101436.19;5232652;28;20090;-66
2022/04/02 03:49:27;;;;;;;7.03;2.37;;;;;;;1.30;64.91;101431.91;5249707;28;20044;-66
2022/04/02 03:51:58;;;;;;;3.70;2.13;;;;;;;1.24;65.08;101444.88;5249412;28;20714;-66
2022/04/02 03:54:30;;;;;;;3.63;2.57;;;;;;;1.36;65.61;101447.34;5250504;28;20091;-66
2022/04/02 03:57:06;;;;;;;7.60;2.70;;;;;;;1.35;65.75;101449.91;5250516;28;20021;-66
2022/04/02 03:59:37;;;;;;;4.70;2.87;;;;;;;1.28;66.03;101446.53;5249361;28;20024;-66
2022/04/02 04:02:10;;;;;;;7.00;3.00;;;;;;;1.23;66.54;101451.75;5249910;28;20033;-66
2022/04/02 04:04:42;;;;;;;4.20;2.80;;;;;;;1.23;66.05;101445.72;5250504;28;20365;-66
2022/04/02 04:07:14;;;;;;;4.47;2.63;;;;;;;1.25;65.87;101455.19;5247510;28;20025;-66
2022/04/02 04:09:46;;;;;;;5.33;2.80;;;;;;;1.26;66.19;101456.00;5248771;28;20045;-66
2022/04/02 04:12:17;;;;;;;4.70;2.67;;;;;;;1.30;66.45;101460.28;5249444;28;20056;-66
2022/04/02 04:14:48;;;;;;;5.57;2.83;;;;;;;1.24;67.31;101461.19;5250025;28;20110;-66
2022/04/02 04:17:21;;;;;;;4.57;2.73;;;;;;;1.21;66.62;101461.22;5249333;28;20027;-66
2022/04/02 04:19:52;;;;;;;7.23;2.77;;;;;;;1.23;66.42;101467.25;5249477;28;20075;-66
2022/04/02 04:22:24;;;;;;;5.43;3.37;;;;;;;1.14;67.78;101468.19;5248774;28;20032;-66
2022/04/02 04:24:55;;;;;;;3.63;2.60;;;;;;;1.10;66.93;101470.81;5249317;28;20025;-66
2022/04/02 04:27:26;;;;;;;5.63;2.90;;;;;;;1.10;67.02;101466.50;5250423;28;20033;-66
2022/04/02 04:29:58;;;;;;;3.57;2.33;;;;;;;1.10;67.11;101468.25;5253725;28;20005;-66
2022/04/02 04:32:30;;;;;;;4.63;2.50;;;;;;;1.04;66.83;101461.41;5249731;28;20115;-66
2022/04/02 04:35:01;;;;;;;4.53;2.70;;;;;;;1.01;67.38;101461.44;5248603;28;20479;-66
2022/04/02 04:37:37;;;;;;;8.00;2.67;;;;;;;1.14;67.01;101473.34;5248965;28;20549;-66
2022/04/02 04:40:08;;;;;;;3.10;2.20;;;;;;;1.05;66.89;101471.72;5248910;28;20364;-66
2022/04/02 04:42:40;;;;;;;4.70;2.67;;;;;;;1.12;67.48;101471.66;5249090;28;20029;-66
2022/04/02 04:45:11;;;;;;;4.53;2.37;;;;;;;1.17;65.93;101477.63;5249365;28;20028;-66
2022/04/02 04:47:46;;;;;;;5.20;3.57;;;;;;;1.13;66.73;101484.56;5248532;28;20094;-66
2022/04/02 04:50:19;;;;;;;5.87;3.03;;;;;;;1.07;66.88;101482.00;5245906;28;20052;-66
2022/04/02 04:52:50;;;;;;;9.30;2.70;;;;;;;1.11;66.89;101486.28;5248107;28;20036;-66
2022/04/02 04:55:21;;;;;;;5.47;2.80;;;;;;;1.06;67.76;101500.97;5248781;28;20514;-66
2022/04/02 04:57:53;;;;;;;5.03;2.40;;;;;;;1.04;67.03;101500.97;5248097;28;20035;-66
2022/04/02 05:00:24;;;;;;;4.30;2.63;;;;;;;1.11;66.07;101501.78;5249062;28;20021;-66
2022/04/02 05:02:55;;;;;;;12.17;4.27;;;;;;;0.95;66.47;101494.16;5227176;28;20037;-66
2022/04/02 05:05:28;;;;;;;3.07;2.17;;;;;;;1.00;66.63;101512.19;5230168;28;20394;-66
2022/04/02 05:08:00;;;;;;;5.27;2.33;;;;;;;1.02;66.28;101504.41;5230300;28;20793;-66
2022/04/02 05:10:32;;;;;;;3.83;2.37;;;;;;;1.05;66.11;101506.97;5230185;28;20112;-66
2022/04/02 05:13:03;;;;;;;7.77;2.97;;;;;;;1.01;66.80;101508.75;5248976;28;20050;-66
2022/04/02 05:15:35;;;;;;;4.50;2.23;;;;;;;1.08;65.72;101515.53;5247583;28;20032;-66
2022/04/02 05:18:08;;;;;;;6.20;2.37;;;;;;;1.12;65.67;101521.53;5248248;28;20037;-66
2022/04/02 05:20:41;;;;;;;4.77;2.63;;;;;;;1.16;65.56;101523.22;5248876;28;20048;-66
2022/04/02 05:23:12;;;;;;;4.80;2.17;;;;;;;1.15;65.45;101523.25;5247582;28;20029;-66
2022/04/02 05:25:44;;;;;;;5.73;2.20;;;;;;;1.09;65.64;101531.88;5248963;28;20635;-66
2022/04/02 05:28:15;;;;;;;5.17;2.43;;;;;;;1.09;64.93;101531.88;5247987;28;20068;-66
2022/04/02 05:30:46;;;;;;;4.20;2.23;;;;;;;1.12;65.03;101539.59;5243751;28;20051;-66
2022/04/02 05:33:18;;;;;;;4.77;2.87;;;;;;;1.14;65.00;101548.19;5247973;28;20698;-66
2022/04/02 05:35:49;;;;;;;3.30;1.90;;;;;;;1.07;64.59;101549.97;5248524;28;20438;-66
2022/04/02 05:38:21;;;;;;;3.60;2.30;;;;;;;1.04;65.70;101554.28;5247832;28;20047;-66
2022/04/02 05:40:52;;;;;;;3.80;2.33;;;;;;;1.14;65.38;101548.19;5247646;28;20021;-66
2022/04/02 05:43:23;;;;;;;3.43;2.57;;;;;;;1.15;65.57;101546.47;5248066;28;20045;-66
2022/04/02 05:45:55;;;;;;;5.87;2.10;;;;;;;1.06;66.48;101557.72;5248325;28;20024;-66
2022/04/02 05:48:29;;;;;;;3.73;2.40;;;;;;;1.17;65.46;101566.22;5248267;28;20037;-66
2022/04/02 05:51:01;;;;;;;3.00;2.13;;;;;;;1.23;65.89;101559.28;5247551;28;20057;-66
2022/04/02 05:53:32;;;;;;;5.13;2.80;;;;;;;1.28;66.08;101566.13;5247643;28;20110;-66
2022/04/02 05:56:03;;;;;;;7.20;2.37;;;;;;;1.28;66.44;101567.84;5230041;28;20028;-66
2022/04/02 05:58:37;;;;;;;4.93;2.20;;;;;;;1.29;66.07;101575.56;5247580;28;20458;-66
2022/04/02 06:01:08;;;;;;;4.72;2.42;;;;;;;1.24;65.54;101585.06;5248383;28;20013;-66
2022/04/02 06:03:40;;;;;;;5.43;2.43;;;;;;;1.24;66.57;101582.50;5247218;28;20486;-66
2022/04/02 06:06:12;;;;;;;4.47;2.00;;;;;;;1.26;65.76;101585.06;5224617;28;20104;-66
2022/04/02 06:08:43;;;;;;;4.53;2.73;;;;;;;1.34;66.72;101591.03;5246159;28;20041;-66
2022/04/02 06:11:14;;;;;;;5.23;2.50;;;;;;;1.29;66.00;101592.78;5247553;28;20032;-66
2022/04/02 06:13:46;;;;;;;5.27;2.37;;;;;;;1.42;66.39;101591.81;5230132;28;20467;-66
2022/04/02 06:16:18;;;;;;;3.67;2.30;;;;;;;1.36;66.34;101599.63;5245898;28;20594;-66
2022/04/02 06:18:50;;;;;;;5.47;2.67;;;;;;;1.42;66.48;101594.38;5247484;28;20025;-66
2022/04/02 06:21:21;;;;;;;6.20;2.50;;;;;;;1.39;65.60;101591.84;5245522;28;20033;-66
2022/04/02 06:23:52;;;;;;;7.43;3.07;;;;;;;1.36;66.06;101597.03;5252897;28;20120;-66
2022/04/02 06:26:24;;;;;;;5.73;3.53;;;;;;;1.37;66.54;101603.91;5248435;28;20041;-66
2022/04/02 06:28:55;;;;;;;5.53;2.87;;;;;;;1.47;65.78;101598.66;5248859;28;20082;-66
2022/04/02 06:31:26;;;;;;;7.10;3.23;;;;;;;1.55;65.54;101610.59;5250021;28;20028;-66
2022/04/02 06:33:57;;;;;;;4.40;2.63;;;;;;;1.61;65.61;101611.41;5250579;28;20025;-66
2022/04/02 06:36:29;;;;;;;4.20;2.57;;;;;;;1.52;65.24;101622.72;5250071;28;20033;-66
2022/04/02 06:39:00;;;;;;;7.43;2.97;;;;;;;1.60;66.52;101622.63;5249737;28;20515;-66
2022/04/02 06:41:31;;;;;;;4.50;2.53;;;;;;;1.65;65.67;101616.56;5249444;28;20577;-66
2022/04/02 06:44:03;;;;;;;4.70;2.67;;;;;;;1.63;65.64;101620.88;5249967;28;20037;-66
2022/04/02 06:46:35;;;;;;;4.57;2.50;;;;;;;1.69;65.34;101631.13;5251229;28;20841;-66
2022/04/02 06:49:06;;;;;;;3.80;2.80;;;;;;;1.75;65.83;101626.78;5232112;28;20115;-66
2022/04/02 06:51:38;;;;;;;8.73;3.13;;;;;;;1.79;65.39;101633.63;5232366;28;20108;-66
2022/04/02 06:54:09;;;;;;;6.40;2.97;;;;;;;1.80;64.70;101637.91;5250198;28;20025;-66
2022/04/02 06:56:40;;;;;;;5.03;2.87;;;;;;;1.94;64.78;101640.34;5250401;28;20041;-66
2022/04/02 06:59:11;;;;;;;7.63;3.30;;;;;;;1.89;64.08;101642.13;5232779;28;20052;-66
2022/04/02 07:01:43;;;;;;;9.30;3.20;;;;;;;1.96;64.92;101643.78;5250457;28;20610;-66
2022/04/02 07:04:14;;;;;;;6.00;2.90;;;;;;;2.07;64.58;101651.44;5232567;28;20411;-66
2022/04/02 07:06:45;;;;;;;5.43;3.07;;;;;;;2.09;64.92;101654.00;5249756;28;20029;-66
2022/04/02 07:09:18;;;;;;;6.83;3.13;;;;;;;2.17;63.58;101657.34;5248404;28;20040;-66
2022/04/02 07:11:49;;;;;;;5.43;2.97;;;;;;;2.11;64.19;101662.59;5248660;28;20121;-66
2022/04/02 07:14:20;;;;;;;4.33;2.50;;;;;;;2.28;64.35;101664.97;5249201;28;20104;-66
2022/04/02 07:16:52;;;;;;;6.80;2.97;;;;;;;2.26;63.84;101661.56;5249715;28;20484;-66
2022/04/02 07:19:25;;;;;;;6.57;2.90;;;;;;;2.41;64.33;101666.53;5249458;28;20029;-66
2022/04/02 07:21:56;;;;;;;6.20;2.77;;;;;;;2.36;63.33;101670.91;5232265;28;20021;-66
2022/04/02 07:24:31;;;;;;;7.47;2.67;;;;;;;2.49;63.91;101669.03;5256754;28;20543;-66
2022/04/02 07:27:02;;;;;;;;;;;;;;;2.70;63.98;101672.22;5254889;28;20029;-66
2022/04/02 07:29:34;;;;;;;6.93;2.73;;;;;;;2.58;63.60;101678.41;5250068;28;20378;-66
2022/04/02 07:32:08;;;;;;;5.40;2.60;;;;;;;2.63;62.83;101679.22;5247814;28;20257;-66
2022/04/02 07:34:39;;;;;;;4.40;2.20;;;;;;;2.49;63.04;101645.78;5250263;28;20112;-66
2022/04/02 07:37:52;;;;;;;6.67;2.70;;;;;;;2.84;63.44;101684.97;5248849;28;20051;-66
2022/04/02 07:40:28;;;;;;;6.83;3.07;;;;;;;2.78;63.93;101690.22;5248035;28;20120;-67
2022/04/02 07:43:35;;;;;;;6.13;2.47;;;;;;;2.96;62.95;101693.44;5250377;28;20024;-67
2022/04/02 07:46:16;;;;;;;7.23;2.87;;;;;;;3.16;62.47;101702.66;5249101;28;20132;-67
2022/04/02 07:48:48;;;;;;;6.13;3.60;;;;;;;3.33;61.07;101708.44;5249158;28;20039;-66
2022/04/02 07:51:24;;;;;;;5.43;2.13;;;;;;;3.57;60.68;101708.91;5248250;28;20495;-67
2022/04/02 07:54:02;;;;;;;7.43;3.30;;;;;;;3.91;60.07;101704.06;5249615;28;20025;-67
2022/04/02 07:56:38;;;;;;;6.03;2.43;;;;;;;4.36;59.24;101714.41;5249659;28;20032;-67
2022/04/02 07:59:22;;;;;;;5.17;2.57;;;;;;;4.88;59.12;101720.31;5249537;28;20021;-67
2022/04/02 08:01:56;;;;;;;5.18;2.70;;;;;;;5.38;56.47;101721.78;5250033;28;20023;-65
2022/04/02 08:04:28;;;;;;;8.63;2.97;;;;;;;5.94;55.76;101723.03;5249314;28;20025;-67
2022/04/02 08:06:59;;;;;;;5.27;3.07;;;;;;;6.09;53.03;101718.34;5230756;28;20361;-67
2022/04/02 08:09:31;;;;;;;13.23;4.20;;;;;;;6.40;52.31;101712.31;5249346;28;20036;-68
2022/04/02 08:12:03;;;;;;;7.17;3.27;;;;;;;6.50;52.03;101718.94;5249646;28;20507;-67
2022/04/02 08:14:36;;;;;;;6.20;3.20;;;;;;;6.61;51.46;101709.97;5249437;28;20536;-67
2022/04/02 08:17:08;;;;;;;7.80;2.83;;;;;;;6.63;51.47;101716.00;5249725;28;20021;-67
2022/04/02 08:19:41;;;;;;;6.20;2.83;;;;;;;6.78;51.96;101722.50;5248818;28;20487;-67
2022/04/02 08:22:12;;;;;;;5.30;2.80;;;;;;;6.77;50.62;101726.84;5229502;28;20041;-67
2022/04/02 08:24:44;;;;;;;5.00;3.10;;;;;;;7.21;50.85;101730.75;5249883;28;20082;-67
2022/04/02 08:27:22;;;;;;;4.83;2.60;;;;;;;6.86;49.21;101727.50;5248896;28;20025;-67
2022/04/02 08:29:56;;;;;;;7.77;2.57;;;;;;;6.98;50.31;101732.31;5249218;28;20475;-67
2022/04/02 08:32:36;;;;;;;6.13;2.72;;;;;;;6.86;48.81;101730.94;5248898;28;20025;-68
2022/04/02 08:35:09;;;;;;;5.17;2.70;;;;;;;6.82;50.20;101729.34;5248813;28;20033;-67
2022/04/02 08:38:32;;;;;;;5.67;2.73;;;;;;;6.99;50.60;101736.63;5248131;28;20024;-67
2022/04/02 08:41:45;;;;;;;5.17;2.90;;;;;;;7.07;50.79;101739.00;5203103;28;20048;-67
2022/04/02 08:44:27;;;;;;;5.50;3.57;;;;;;;6.74;50.41;101747.78;5208486;28;20037;-66
2022/04/02 08:47:11;;;;;;;7.40;3.60;;;;;;;6.47;51.23;101729.47;5247611;28;20585;-69
2022/04/02 08:50:04;;;;;;;5.10;3.43;;;;;;;6.51;51.50;101741.47;5241183;28;20024;-68
2022/04/02 08:52:50;;;;;;;4.67;2.57;;;;;;;6.54;52.24;101743.97;5239768;28;20483;-68
2022/04/02 08:55:31;;;;;;;8.33;3.13;;;;;;;6.10;52.98;101761.66;5247682;28;20441;-68
2022/04/02 08:58:22;;;;;;;8.27;3.03;;;;;;;5.88;52.18;101757.81;5230605;28;20045;-68
2022/04/02 09:01:09;;;;;;;6.07;2.80;;;;;;;5.99;53.46;101759.28;5248943;28;20670;-68
2022/04/02 09:03:58;;;;;;;6.87;2.97;;;;;;;5.81;53.66;101769.28;5248384;28;20037;-68
2022/04/02 09:06:36;;;;;;;8.00;3.27;;;;;;;5.66;53.43;101768.75;5247757;28;20021;-68
2022/04/02 09:09:20;;;;;;;6.00;3.17;;;;;;;5.43;53.60;101769.28;5248824;28;20041;-69
2022/04/02 09:12:26;;;;;;;5.30;3.33;;;;;;;5.50;55.00;101778.66;5247999;28;20028;-70
2022/04/02 09:15:07;;;;;;;6.87;3.30;;;;;;;5.55;54.88;101778.56;5247416;28;20048;-69
2022/04/02 09:18:27;;;;;;;5.67;3.80;;;;;;;5.93;54.60;101783.72;5248913;28;20487;-69
2022/04/02 09:21:06;;;;;;;3.60;2.80;;;;;;;6.28;54.08;101787.19;5246448;28;20033;-69
2022/04/02 09:23:44;;;;;;;6.53;3.03;;;;;;;6.31;53.59;101788.00;5231427;28;20029;-68
2022/04/02 09:26:21;;;;;;;6.67;4.07;;;;;;;5.85;52.69;101798.69;5247774;28;20029;-69
2022/04/02 09:29:10;;;;;;;6.60;3.63;;;;;;;5.83;52.68;101787.44;5248152;28;20100;-68
2022/04/02 09:32:22;;;;;;;6.10;3.77;;;;;;;5.79;53.65;101799.66;5215204;28;20048;-67
2022/04/02 09:35:33;;;;;;;7.97;3.83;;;;;;;5.72;54.55;101798.09;5217318;28;20055;-68
2022/04/02 09:38:26;;;;;;;5.03;3.30;;;;;;;5.63;54.50;101789.63;5222245;28;21243;-70
2022/04/02 09:41:15;;;;;;;5.93;3.67;;;;;;;5.45;54.89;101791.78;5216737;28;20123;-70
2022/04/02 09:43:59;;;;;;;5.33;3.33;;;;;;;5.42;54.49;101790.97;5218804;28;20045;-70
2022/04/02 09:46:59;;;;;;;6.00;3.80;;;;;;;5.52;54.77;101794.22;5216002;28;20519;-70
2022/04/02 09:49:36;;;;;;;5.03;3.10;;;;;;;5.50;53.97;101794.25;5201619;28;20895;-66
2022/04/02 09:52:08;;;;;;;7.10;3.47;;;;;;;5.54;54.66;101798.50;5220110;28;20099;-67
2022/04/02 09:54:48;;;;;;;6.77;3.97;;;;;;;6.23;53.74;101796.03;5218912;28;20022;-66
2022/04/02 09:57:22;;;;;;;6.20;3.93;;;;;;;6.65;50.72;101802.69;5214975;28;20052;-71
2022/04/02 10:00:07;;;;;;;6.65;3.42;;;;;;;7.23;50.62;101796.69;5217756;28;20068;-71
2022/04/02 10:03:01;;;;;;;8.23;3.00;;;;;;;7.92;49.29;101796.31;5217399;28;20051;-76
2022/04/02 10:05:51;;;;;;;5.70;3.00;;;;;;;7.74;47.74;101794.25;5200038;28;20277;-70
2022/04/02 10:08:45;;;;;;;3.40;2.30;;;;;;;8.55;49.17;101795.03;5230639;28;20103;-66
2022/04/02 10:11:24;;;;;;;6.50;3.03;;;;;;;8.60;47.00;101795.75;5224803;28;20041;-68
2022/04/02 10:14:00;;;;;;;5.33;3.30;;;;;;;8.52;46.01;101803.81;5232946;28;20489;-68
2022/04/02 10:16:32;;;;;;;9.50;3.60;;;;;;;8.74;46.30;101797.00;5224356;28;20397;-68
2022/04/02 10:19:07;;;;;;;5.87;3.10;;;;;;;9.46;45.17;101794.31;5223369;28;20040;-71
2022/04/02 10:21:39;;;;;;;4.43;2.60;;;;;;;10.22;43.14;101793.81;5226974;28;20041;-70
2022/04/02 10:24:25;;;;;;;8.07;2.80;;;;;;;10.67;43.06;101790.16;5221470;28;20513;-67
2022/04/02 10:26:57;;;;;;;7.50;3.13;;;;;;;10.37;42.72;101775.72;5221490;28;20495;-70
2022/04/02 10:30:03;;;;;;;5.43;3.13;;;;;;;10.28;43.94;101787.47;5219443;28;20065;-68
2022/04/02 10:33:26;;;;;;;5.57;3.37;;;;;;;9.78;44.08;101784.28;5221869;28;20580;-69
2022/04/02 10:35:54;;;;;;;5.73;3.53;;;;;;;9.18;43.58;101772.72;5219162;28;20052;-76
2022/04/02 10:38:36;;;;;;;6.07;3.40;;;;;;;8.92;45.00;101764.97;5233343;28;20025;-74
2022/04/02 10:41:11;;;;;;;4.73;2.90;;;;;;;8.41;47.17;101779.88;5224003;28;20700;-69
2022/04/02 10:43:50;;;;;;;7.53;3.30;;;;;;;8.18;52.91;101787.59;5218819;28;20065;-69
2022/04/02 10:46:25;;;;;;;6.30;3.43;;;;;;;7.85;51.86;101785.22;5226382;28;20024;-66
2022/04/02 10:49:07;;;;;;;8.33;3.53;;;;;;;7.39;52.44;101791.00;5222631;28;20115;-68
2022/04/02 10:51:42;;;;;;;6.93;3.40;;;;;;;7.26;54.37;101790.56;5225350;28;20032;-66
2022/04/02 10:54:16;;;;;;;5.67;3.17;;;;;;;7.30;51.55;101789.53;5222453;28;20105;-67
2022/04/02 10:56:48;;;;;;;5.88;3.53;;;;;;;6.86;54.99;101787.38;5224524;28;20030;-66
2022/04/02 10:59:19;;;;;;;6.20;3.50;;;;;;;6.96;53.35;101778.41;5218318;28;20047;-66
2022/04/02 11:01:53;;;;;;;7.57;3.10;;;;;;;6.98;54.00;101787.00;5220571;28;20033;-69
2022/04/02 11:04:43;;;;;;;6.33;3.60;;;;;;;6.90;52.72;101784.63;5227406;28;20033;-72
2022/04/02 11:07:27;;;;;;;7.03;3.30;;;;;;;7.02;52.24;101783.41;5223391;28;20373;-73
2022/04/02 11:09:59;;;;;;;5.30;3.53;;;;;;;6.65;53.74;101790.53;5223737;28;20097;-76
2022/04/02 11:12:41;;;;;;;6.03;3.20;;;;;;;6.62;53.30;101784.56;5229133;28;20615;-75
2022/04/02 11:15:17;;;;;;;5.87;3.27;;;;;;;6.67;51.66;101782.69;5225991;28;20033;-70
2022/04/02 11:17:54;;;;;;;9.93;3.67;;;;;;;6.54;50.95;101788.22;5220486;28;20025;-73
2022/04/02 11:20:27;;;;;;;8.50;3.33;;;;;;;6.48;51.03;101778.00;5216475;28;20051;-74
2022/04/02 11:23:14;;;;;;;6.37;3.47;;;;;;;6.60;52.08;101765.53;5222917;28;20503;-77
2022/04/02 11:25:54;;;;;;;7.50;3.67;;;;;;;6.63;51.33;101770.66;5223523;28;20029;-82
2022/04/02 11:28:41;;;;;;;4.33;3.07;;;;;;;6.65;51.69;101771.44;5212632;28;20036;-69
2022/04/02 11:31:13;;;;;;;4.70;3.47;;;;;;;6.58;49.79;101775.97;5218859;28;20104;-67
2022/04/02 11:33:55;;;;;;;5.57;3.90;;;;;;;6.58;49.47;101775.97;5249410;28;20052;-68
2022/04/02 11:36:43;;;;;;;6.07;3.17;;;;;;;6.66;49.88;101765.38;5222460;28;20487;-69
2022/04/02 11:39:33;;;;;;;6.17;2.97;;;;;;;6.69;49.58;101775.69;5220379;28;20049;-71
2022/04/02 11:42:07;;;;;;;5.47;2.60;;;;;;;6.57;48.18;101778.63;5226538;28;20056;-68
2022/04/02 11:44:38;;;;;;;6.05;2.88;;;;;;;6.31;46.80;101783.66;5223238;28;20030;-68
2022/04/02 11:47:11;;;;;;;5.27;2.70;;;;;;;6.37;47.26;101780.88;5225730;28;20472;-72
2022/04/02 11:49:44;;;;;;;4.70;2.00;;;;;;;6.18;49.50;101770.09;5211470;28;20116;-70
2022/04/02 11:52:16;;;;;;;4.37;2.83;;;;;;;6.25;46.55;101787.28;5223466;28;20664;-71
2022/04/02 11:54:47;;;;;;;5.43;2.30;;;;;;;6.42;46.20;101785.97;5227531;28;20061;-67
2022/04/02 11:57:19;;;;;;;3.67;2.10;;;;;;;6.46;43.83;101787.59;5228051;28;20136;-68
2022/04/02 11:59:56;;;;;;;7.17;2.17;;;;;;;6.69;44.85;101791.31;5227477;28;20537;-68
2022/04/02 12:02:36;;;;;;;5.40;2.67;;;;;;;6.81;44.21;101782.28;5225563;28;20033;-72
2022/04/02 12:05:10;;;;;;;3.33;2.07;;;;;;;7.03;43.21;101781.69;5226712;28;20049;-68
2022/04/02 12:07:42;;;;;;;4.13;2.20;;;;;;;7.07;43.03;101785.03;5218179;28;20178;-68
2022/04/02 12:10:27;;;;;;;4.00;2.40;;;;;;;7.11;41.97;101784.03;5224224;28;20042;-68
2022/04/02 12:13:02;;;;;;;3.10;1.70;;;;;;;7.00;43.25;101774.78;5232192;28;21510;-73
2022/04/02 12:15:34;;;;;;;3.03;1.53;;;;;;;7.03;42.86;101784.28;5224600;28;20084;-72
2022/04/02 12:18:08;;;;;;;5.00;2.10;;;;;;;7.10;42.91;101784.94;5229892;28;20146;-74
2022/04/02 12:20:40;;;;;;;3.80;2.45;;;;;;;7.07;43.08;101790.25;5217210;28;20029;-70